Time;durP1;ratioP1;P1;durP2;ratioP2;P2;SDS_P1;SDS_P2;PMS_P1;PMS_P2;Temp;Humidity;BMP_temperature;BMP_pressure;BME280_temperature;BME280_humidity;BME280_pressure;Samples;Min_cycle;Max_cycle;Signal;HPM_P1;HPM_P2
2021/12/17 00:05:02;;;;;;;7.80;5.03;;;;;;;11.23;52.76;101174.44;4919833;29;20530;-68
2021/12/17 00:07:35;;;;;;;8.43;4.13;;;;;;;11.30;52.43;101175.03;4929035;29;20052;-71
2021/12/17 00:10:09;;;;;;;6.57;4.23;;;;;;;11.22;52.75;101174.72;4932580;29;20099;-66
2021/12/17 00:12:37;;;;;;;4.93;3.20;;;;;;;11.20;52.93;101185.31;4932809;29;20051;-68
2021/12/17 00:15:05;;;;;;;7.90;3.80;;;;;;;11.20;52.95;101179.72;4925297;29;20139;-65
2021/12/17 00:17:36;;;;;;;4.77;3.07;;;;;;;11.19;53.10;101187.28;4931587;29;20062;-72
2021/12/17 00:51:34;;;;;;;8.40;4.47;;;;;;;11.53;52.21;101178.53;4932051;29;20531;-65
2021/12/17 00:53:51;;;;;;;10.03;5.47;;;;;;;11.61;52.02;101164.84;4932035;29;20047;-66
2021/12/17 00:56:18;;;;;;;7.03;4.73;;;;;;;11.73;51.71;101180.59;4936079;29;20091;-69
2021/12/17 00:58:46;;;;;;;11.30;4.30;;;;;;;11.62;51.74;101154.50;4925851;29;20127;-66
2021/12/17 01:01:13;;;;;;;16.73;6.13;;;;;;;11.84;51.31;101168.34;4925178;29;20920;-66
2021/12/17 01:03:40;;;;;;;13.93;6.87;;;;;;;11.99;50.85;101170.34;4926200;29;20126;-67
2021/12/17 01:06:08;;;;;;;16.03;7.73;;;;;;;12.03;50.44;101163.09;4928389;29;20139;-68
2021/12/17 01:08:35;;;;;;;16.10;7.93;;;;;;;12.09;50.13;101160.03;4932654;29;20348;-67
2021/12/17 01:11:04;;;;;;;26.50;11.03;;;;;;;12.15;50.05;101165.66;4932083;29;20145;-61
2021/12/17 01:13:33;;;;;;;35.77;15.97;;;;;;;12.14;49.88;101166.78;4927861;29;20142;-63
2021/12/17 01:16:00;;;;;;;34.10;17.40;;;;;;;12.11;49.84;101170.97;4933623;29;20139;-62
2021/12/17 01:18:40;;;;;;;22.60;12.83;;;;;;;11.99;49.83;101162.78;4932246;29;20440;-62
2021/12/17 01:21:24;;;;;;;16.30;6.95;;;;;;;11.76;49.95;101143.66;4935257;29;20131;-66
2021/12/17 01:43:01;;;;;;;10.47;5.20;;;;;;;11.72;50.35;101182.53;4919457;29;20131;-69
2021/12/17 01:45:32;;;;;;;10.77;5.53;;;;;;;11.50;50.97;101188.31;4931324;29;20123;-65
2021/12/17 01:48:02;;;;;;;11.37;6.43;;;;;;;11.21;51.75;101189.78;4936392;29;20138;-65
2021/12/17 02:01:28;;;;;;;11.00;5.93;;;;;;;10.63;54.11;101187.69;4935972;29;20083;-63
2021/12/17 02:03:56;;;;;;;6.53;2.93;;;;;;;10.60;54.27;101188.22;4935833;29;20089;-63
2021/12/17 02:06:24;;;;;;;9.23;4.13;;;;;;;10.45;54.25;101148.97;4936319;29;20043;-63
2021/12/17 02:08:53;;;;;;;7.67;4.50;;;;;;;10.57;54.16;101163.63;4934704;29;20134;-64
2021/12/17 02:19:43;;;;;;;15.03;6.03;;;;;;;11.04;53.10;101185.22;4933236;29;20107;-68
2021/12/17 02:31:15;;;;;;;14.20;5.83;;;;;;;10.78;53.91;101191.72;4931701;29;20075;-66
2021/12/17 02:33:32;;;;;;;7.70;4.38;;;;;;;10.73;53.85;101183.28;4925246;29;20419;-66
2021/12/17 02:36:00;;;;;;;12.47;5.70;;;;;;;10.51;53.87;101149.88;4933511;29;20476;-69
2021/12/17 02:38:29;;;;;;;13.83;6.30;;;;;;;10.68;53.76;101187.72;4935523;29;20135;-69
2021/12/17 02:46:27;;;;;;;8.43;4.00;;;;;;;10.35;54.95;101190.75;4934456;29;20130;-66
2021/12/17 02:48:56;;;;;;;7.90;5.00;;;;;;;10.22;55.34;101186.38;4932280;29;20130;-67
2021/12/17 02:51:23;;;;;;;13.80;6.17;;;;;;;10.06;55.62;101185.41;4932316;29;20052;-74
2021/12/17 02:53:53;;;;;;;10.60;6.03;;;;;;;9.93;56.07;101169.91;4931621;29;20079;-72
2021/12/17 02:56:21;;;;;;;8.27;4.07;;;;;;;9.92;56.29;101186.91;4932916;29;20147;-72
2021/12/17 02:58:49;;;;;;;11.47;4.20;;;;;;;9.91;56.45;101188.00;4929203;29;20051;-70
2021/12/17 03:01:17;;;;;;;9.90;4.93;;;;;;;9.96;56.43;101193.66;4931506;29;20082;-68
2021/12/17 03:03:48;;;;;;;13.17;4.97;;;;;;;9.97;56.49;101175.78;4930923;29;20091;-68
2021/12/17 03:06:15;;;;;;;11.27;6.47;;;;;;;9.90;56.60;101180.75;4927197;29;20047;-69
2021/12/17 03:08:46;;;;;;;9.27;4.30;;;;;;;9.81;56.79;101173.94;4923262;29;20143;-68
2021/12/17 03:11:14;;;;;;;11.87;5.17;;;;;;;9.95;56.79;101175.22;4929914;29;20103;-68
2021/12/17 03:13:44;;;;;;;7.37;3.83;;;;;;;9.90;56.47;101150.88;4926999;29;20143;-68
2021/12/17 03:19:25;;;;;;;8.33;4.47;;;;;;;10.47;55.61;101166.31;4927923;29;20103;-69
2021/12/17 03:24:37;;;;;;;12.23;4.57;;;;;;;10.87;54.81;101167.75;4932813;29;20070;-68
2021/12/17 03:27:04;;;;;;;9.20;4.27;;;;;;;10.98;54.33;101177.91;4930071;29;20066;-68
2021/12/17 03:29:35;;;;;;;8.80;4.33;;;;;;;10.97;54.18;101170.63;4930886;29;20107;-68
2021/12/17 03:32:03;;;;;;;9.20;4.93;;;;;;;11.01;54.17;101162.53;4933864;29;20047;-68
2021/12/17 03:34:30;;;;;;;9.63;4.73;;;;;;;11.00;53.86;101156.13;4930744;29;20055;-64
2021/12/17 03:36:57;;;;;;;6.03;3.67;;;;;;;11.11;53.70;101162.63;4932360;29;20079;-65
2021/12/17 03:39:26;;;;;;;16.10;3.47;;;;;;;11.11;53.79;101159.81;4933224;29;20138;-64
2021/12/17 03:41:53;;;;;;;11.93;5.37;;;;;;;11.08;53.46;101150.03;4929165;29;20111;-65
2021/12/17 03:44:21;;;;;;;8.53;5.87;;;;;;;11.15;53.39;101161.81;4933643;29;20130;-67
2021/12/17 03:46:50;;;;;;;10.23;4.57;;;;;;;11.22;53.08;101156.00;4932547;29;20083;-66
2021/12/17 03:49:18;;;;;;;9.20;4.73;;;;;;;11.19;52.98;101145.34;4932823;29;20052;-67
2021/12/17 03:51:52;;;;;;;10.60;4.93;;;;;;;11.39;52.63;101161.41;4929954;29;20043;-67
2021/12/17 03:54:19;;;;;;;10.73;5.13;;;;;;;11.35;52.49;101149.06;4931693;29;20079;-67
2021/12/17 03:56:46;;;;;;;13.03;5.47;;;;;;;11.42;52.56;101151.63;4927816;29;20075;-67
2021/12/17 03:59:12;;;;;;;10.77;4.77;;;;;;;11.45;52.24;101142.69;4931819;29;20484;-68
2021/12/17 04:01:40;;;;;;;10.17;4.67;;;;;;;11.22;52.31;101110.44;4932035;29;20522;-67
2021/12/17 04:04:07;;;;;;;10.57;4.73;;;;;;;11.39;52.35;101141.84;4933613;29;20131;-68
2021/12/17 04:06:36;;;;;;;8.47;4.60;;;;;;;11.29;52.42;101123.03;4932485;29;20055;-69
2021/12/17 04:09:04;;;;;;;8.93;4.40;;;;;;;11.39;52.20;101144.63;4929186;29;20055;-67
2021/12/17 04:11:32;;;;;;;9.37;4.93;;;;;;;11.31;52.31;101129.19;4931632;29;20134;-64
2021/12/17 04:13:59;;;;;;;12.13;5.47;;;;;;;11.35;52.46;101143.47;4925708;29;20043;-67
2021/12/17 04:16:30;;;;;;;9.20;4.90;;;;;;;11.25;52.40;101140.63;4932110;29;20051;-67
2021/12/17 04:18:56;;;;;;;9.57;5.32;;;;;;;11.28;52.61;101132.56;4928778;29;20046;-70
2021/12/17 04:21:25;;;;;;;11.37;4.63;;;;;;;11.28;52.44;101137.28;4928974;29;20107;-68
2021/12/17 04:23:54;;;;;;;7.80;4.40;;;;;;;11.37;52.31;101133.69;4925900;29;20139;-67
2021/12/17 04:26:23;;;;;;;5.30;3.10;;;;;;;11.41;52.07;101122.81;4932683;29;20115;-66
2021/12/17 04:28:52;;;;;;;7.77;4.13;;;;;;;11.58;51.86;101140.22;4929659;29;20596;-68
2021/12/17 04:31:24;;;;;;;6.95;3.90;;;;;;;11.67;51.48;101117.34;4933859;29;20595;-65
2021/12/17 04:33:51;;;;;;;7.20;3.43;;;;;;;11.76;51.46;101122.13;4932303;29;20047;-66
2021/12/17 04:36:24;;;;;;;8.47;4.03;;;;;;;11.84;51.08;101124.41;4933339;29;20492;-63
2021/12/17 04:38:51;;;;;;;9.57;4.23;;;;;;;11.87;51.20;101134.22;4934984;29;20140;-63
2021/12/17 04:59:44;;;;;;;10.00;5.07;;;;;;;10.95;52.35;101153.31;4932339;29;20496;-64
2021/12/17 05:02:11;;;;;;;8.53;4.73;;;;;;;10.72;52.68;101134.13;4928763;29;20187;-64
2021/12/17 05:04:38;;;;;;;9.57;4.40;;;;;;;10.67;53.28;101143.31;4934287;29;20130;-65
2021/12/17 05:07:07;;;;;;;9.80;4.37;;;;;;;10.51;53.49;101139.53;4931014;29;20059;-65
2021/12/17 05:09:44;;;;;;;6.90;3.05;;;;;;;10.52;53.57;101141.22;4933646;29;20075;-61
2021/12/17 05:21:04;;;;;;;4.53;2.33;;;;;;;10.09;55.08;101126.28;4930985;29;20053;-65
2021/12/17 05:23:04;;;;;;;4.80;1.87;;;;;;;10.08;55.40;101140.47;4920339;29;20051;-63
2021/12/17 05:25:31;;;;;;;6.07;2.90;;;;;;;10.10;55.59;101132.69;4934081;29;20134;-63
2021/12/17 05:28:01;;;;;;;5.97;3.57;;;;;;;10.00;55.29;101111.09;4930692;29;20143;-63
2021/12/17 05:30:34;;;;;;;;;;;;;;;10.20;55.23;101143.97;4933323;29;20151;-63
2021/12/17 05:33:01;;;;;;;10.87;3.03;;;;;;;10.19;55.11;101140.34;4925503;29;20759;-63
2021/12/17 05:35:29;;;;;;;5.77;3.50;;;;;;;10.14;55.14;101134.69;4935586;29;20059;-63
2021/12/17 05:37:55;;;;;;;7.97;3.73;;;;;;;10.08;54.96;101119.00;4934204;29;20048;-63
2021/12/17 05:40:22;;;;;;;8.00;3.83;;;;;;;10.27;55.02;101132.63;4926966;29;20074;-65
2021/12/17 05:42:54;;;;;;;6.57;3.50;;;;;;;10.35;54.88;101143.28;4928549;29;20399;-64
2021/12/17 05:48:10;;;;;;;8.07;3.93;;;;;;;10.60;53.67;101146.31;4919885;29;20130;-63
2021/12/17 05:50:40;;;;;;;5.03;3.37;;;;;;;10.61;53.46;101139.63;4934808;29;20504;-63
2021/12/17 05:53:07;;;;;;;7.43;4.13;;;;;;;10.56;53.67;101136.78;4930261;29;20058;-68
2021/12/17 05:55:35;;;;;;;6.20;3.50;;;;;;;10.40;54.00;101135.81;4928664;29;20131;-67
2021/12/17 05:58:03;;;;;;;8.77;3.50;;;;;;;10.42;54.32;101152.28;4929864;29;20138;-64
2021/12/17 06:00:31;;;;;;;6.23;2.57;;;;;;;10.40;54.19;101148.94;4922264;29;20064;-64
2021/12/17 06:03:00;;;;;;;7.47;2.50;;;;;;;10.30;54.59;101138.50;4929311;29;20089;-66
2021/12/17 06:05:28;;;;;;;7.10;4.07;;;;;;;10.45;54.54;101151.75;4931176;29;20059;-67
2021/12/17 06:07:56;;;;;;;5.47;3.40;;;;;;;10.53;54.07;101148.50;4929766;29;20052;-64
2021/12/17 06:10:23;;;;;;;7.97;4.07;;;;;;;10.11;54.34;101087.75;4926808;29;20142;-64
2021/12/17 06:12:49;;;;;;;6.30;3.30;;;;;;;10.42;54.51;101155.91;4926660;29;20071;-65
2021/12/17 06:15:19;;;;;;;5.40;3.73;;;;;;;10.44;54.01;101156.50;4927881;29;20138;-65
2021/12/17 06:17:47;;;;;;;2.60;1.98;;;;;;;10.29;54.44;101130.38;4932603;29;20075;-65
2021/12/17 06:20:15;;;;;;;2.30;1.63;;;;;;;10.25;55.02;101148.75;4928074;29;20048;-63
2021/12/17 06:22:43;;;;;;;2.57;2.00;;;;;;;10.14;55.34;101145.84;4925652;29;20058;-63
2021/12/17 06:25:11;;;;;;;3.03;1.93;;;;;;;10.04;55.69;101150.47;4923729;29;20123;-64
2021/12/17 06:27:40;;;;;;;6.53;3.13;;;;;;;10.10;55.62;101155.84;4920054;29;20099;-67
2021/12/17 06:30:10;;;;;;;6.03;3.93;;;;;;;10.40;54.61;101165.69;4934084;29;20146;-70
2021/12/17 06:32:37;;;;;;;13.88;4.97;;;;;;;10.56;53.83;101164.69;4930641;29;20587;-70
2021/12/17 06:35:05;;;;;;;10.10;5.83;;;;;;;10.65;53.44;101159.47;4930311;29;20063;-71
2021/12/17 06:37:33;;;;;;;9.70;5.30;;;;;;;10.71;53.33;101175.19;4927932;29;20139;-73
2021/12/17 06:40:02;;;;;;;8.67;3.90;;;;;;;10.62;53.36;101165.59;4927069;29;20118;-66
2021/12/17 06:42:29;;;;;;;5.50;3.20;;;;;;;10.46;53.85;101164.63;4928322;29;20078;-73
2021/12/17 06:45:02;;;;;;;5.83;3.63;;;;;;;10.38;54.02;101156.72;4925467;29;20361;-64
2021/12/17 06:47:32;;;;;;;5.57;3.53;;;;;;;10.53;53.90;101170.84;4923142;29;20048;-68
2021/12/17 07:00:36;;;;;;;8.17;3.87;;;;;;;10.37;54.28;101182.97;4932368;29;20143;-67
2021/12/17 07:06:10;;;;;;;4.80;2.47;;;;;;;10.30;54.49;101176.75;4919477;29;20217;-66
2021/12/17 07:24:50;;;;;;;0.73;0.73;;;;;;;10.03;55.23;101188.72;4920810;29;20066;-61
2021/12/17 07:32:52;;;;;;;3.90;2.13;;;;;;;9.87;55.98;101189.63;4929319;29;20054;-61
2021/12/17 07:40:35;;;;;;;3.50;2.87;;;;;;;9.69;55.81;101160.13;4928954;29;20142;-62
2021/12/17 07:43:11;;;;;;;2.05;1.42;;;;;;;9.98;55.48;101199.78;4931249;29;20051;-62
2021/12/17 07:45:39;;;;;;;2.87;1.40;;;;;;;10.02;55.43;101192.63;4926297;29;20130;-62
2021/12/17 07:48:06;;;;;;;8.33;3.67;;;;;;;10.05;55.01;101191.22;4929422;29;20131;-60
2021/12/17 07:50:33;;;;;;;6.90;4.03;;;;;;;10.01;55.51;101192.84;4935725;29;20098;-61
2021/12/17 07:53:01;;;;;;;4.17;2.20;;;;;;;9.94;55.54;101199.47;4933904;29;20131;-61
2021/12/17 07:55:28;;;;;;;6.07;2.03;;;;;;;9.90;55.28;101189.94;4931229;29;20075;-59
2021/12/17 07:57:55;;;;;;;2.43;1.13;;;;;;;9.89;55.37;101184.63;4929091;29;20063;-63
2021/12/17 08:00:22;;;;;;;1.43;1.23;;;;;;;9.92;55.42;101193.34;4922550;29;20091;-64
2021/12/17 08:02:49;;;;;;;2.43;2.10;;;;;;;9.87;55.35;101196.03;4928644;29;20078;-62
2021/12/17 08:05:18;;;;;;;2.10;1.30;;;;;;;9.87;55.18;101196.03;4935512;29;20051;-62
2021/12/17 08:07:45;;;;;;;4.67;1.87;;;;;;;9.94;55.18;101207.00;4923704;29;20054;-59
2021/12/17 08:10:12;;;;;;;2.30;1.70;;;;;;;9.97;54.89;101198.13;4921796;29;20715;-60
2021/12/17 08:12:39;;;;;;;1.43;1.23;;;;;;;10.05;54.77;101206.06;4924274;29;20139;-60
2021/12/17 08:15:09;;;;;;;3.30;2.00;;;;;;;10.14;54.48;101212.00;4921920;29;20048;-59
2021/12/17 08:26:19;;;;;;;2.23;1.53;;;;;;;10.88;52.38;101233.72;4930847;29;20142;-60
2021/12/17 08:31:28;;;;;;;3.20;1.53;;;;;;;11.08;51.64;101228.31;4927657;29;20043;-61
2021/12/17 08:33:57;;;;;;;2.30;1.53;;;;;;;11.17;51.40;101219.41;4929224;29;20411;-61
2021/12/17 08:36:24;;;;;;;2.93;1.70;;;;;;;11.29;50.95;101223.69;4927554;29;20500;-60
2021/12/17 08:38:51;;;;;;;0.63;0.63;;;;;;;11.48;50.14;101221.28;4918167;29;20411;-60
2021/12/17 08:41:20;;;;;;;5.43;2.37;;;;;;;11.69;49.86;101227.88;4941247;29;20082;-60
2021/12/17 08:43:47;;;;;;;2.00;1.53;;;;;;;11.93;49.29;101227.44;4936831;28;20055;-60
2021/12/17 08:46:14;;;;;;;3.73;1.67;;;;;;;12.02;48.83;101226.63;4930235;29;20136;-60
2021/12/17 08:48:41;;;;;;;3.20;2.07;;;;;;;12.16;48.51;101226.13;4922425;29;20464;-60
2021/12/17 08:51:09;;;;;;;4.07;2.40;;;;;;;12.21;47.75;101213.00;4933120;29;20090;-60
2021/12/17 08:53:36;;;;;;;1.80;1.70;;;;;;;12.41;47.52;101217.81;4927013;29;20127;-60
2021/12/17 08:56:04;;;;;;;3.43;2.27;;;;;;;12.63;47.29;101205.50;4937728;29;20130;-60
2021/12/17 08:58:33;;;;;;;5.03;3.77;;;;;;;13.20;46.79;101224.88;4933107;29;20115;-60
2021/12/17 09:01:03;;;;;;;2.33;2.03;;;;;;;13.62;46.07;101225.66;4928420;29;20056;-60
2021/12/17 09:03:31;;;;;;;2.05;1.85;;;;;;;14.05;45.01;101197.97;4928454;29;20592;-61
2021/12/17 09:05:59;;;;;;;3.10;2.27;;;;;;;14.51;43.80;101211.81;4928038;29;20052;-60
2021/12/17 09:08:26;;;;;;;2.63;1.90;;;;;;;14.98;42.84;101213.16;4924309;29;20168;-61
2021/12/17 09:10:55;;;;;;;3.83;2.63;;;;;;;15.31;42.14;101214.25;4925211;29;20080;-57
2021/12/17 09:13:26;;;;;;;6.57;3.03;;;;;;;15.96;41.15;101211.03;4928187;29;20060;-58
2021/12/17 09:15:57;;;;;;;5.27;2.87;;;;;;;16.48;40.36;101195.13;4928524;29;20464;-59
2021/12/17 09:18:25;;;;;;;5.27;3.10;;;;;;;16.88;39.38;101212.56;4922999;29;20051;-59
2021/12/17 09:20:52;;;;;;;1.67;1.58;;;;;;;17.03;38.44;101196.22;4925010;29;20092;-60
2021/12/17 09:23:19;;;;;;;3.15;2.05;;;;;;;17.20;37.66;101200.47;4924504;29;20500;-59
2021/12/17 09:25:52;;;;;;;5.85;2.95;;;;;;;17.25;37.57;101201.19;4930600;29;20044;-59
2021/12/17 09:28:20;;;;;;;7.53;2.67;;;;;;;17.81;37.36;101215.41;4925605;29;20134;-59
2021/12/17 09:30:47;;;;;;;4.43;3.38;;;;;;;18.23;36.75;101212.25;4924383;29;20083;-59
2021/12/17 09:33:14;;;;;;;3.10;2.17;;;;;;;18.26;36.21;101198.66;4928624;29;20055;-59
2021/12/17 09:35:41;;;;;;;2.50;1.67;;;;;;;18.65;35.77;101213.00;4921987;29;20068;-59
2021/12/17 09:38:09;;;;;;;7.38;2.17;;;;;;;19.09;35.78;101217.03;4919958;29;20179;-58
2021/12/17 09:40:36;;;;;;;2.75;1.98;;;;;;;19.33;34.79;101227.22;4931146;29;20135;-57
2021/12/17 09:43:02;;;;;;;10.02;3.60;;;;;;;19.38;34.20;101208.09;4935750;29;20147;-58
2021/12/17 09:45:29;;;;;;;8.65;3.10;;;;;;;19.70;33.96;101208.13;4922832;29;20079;-58
2021/12/17 09:47:56;;;;;;;5.65;3.50;;;;;;;20.20;33.53;101216.28;4920463;29;20051;-58
2021/12/17 09:50:24;;;;;;;6.63;3.47;;;;;;;20.69;33.06;101211.41;4931060;29;20048;-57
2021/12/17 09:52:53;;;;;;;5.80;3.70;;;;;;;21.05;32.80;101223.22;4934654;29;20083;-58
2021/12/17 09:55:21;;;;;;;6.97;3.53;;;;;;;21.57;32.33;101225.16;4931277;29;20058;-60
2021/12/17 09:57:52;;;;;;;5.70;3.15;;;;;;;22.08;31.83;101206.22;4924000;29;20788;-58
2021/12/17 10:00:22;;;;;;;6.95;3.92;;;;;;;22.20;31.21;101222.59;4929185;29;20471;-69
2021/12/17 10:02:50;;;;;;;10.02;4.38;;;;;;;22.46;31.01;101223.28;4932990;29;20086;-63
2021/12/17 10:05:31;;;;;;;7.30;4.28;;;;;;;22.34;31.02;101230.88;4930636;29;20060;-63
2021/12/17 10:08:02;;;;;;;8.10;4.35;;;;;;;21.72;30.47;101232.31;4927530;29;20051;-64
2021/12/17 10:10:37;;;;;;;6.85;3.97;;;;;;;21.38;30.52;101233.25;4928205;29;20134;-64
2021/12/17 10:13:12;;;;;;;8.45;4.50;;;;;;;20.46;30.74;101228.53;4924231;29;20483;-67
2021/12/17 10:15:46;;;;;;;5.97;3.85;;;;;;;20.24;31.40;101229.50;4929624;29;20126;-65
2021/12/17 10:18:14;;;;;;;7.43;4.65;;;;;;;19.73;31.38;101224.47;4931837;29;20488;-66
2021/12/17 10:21:03;;;;;;;5.63;3.13;;;;;;;19.73;32.44;101224.47;4924217;29;20094;-68
2021/12/17 10:23:31;;;;;;;8.77;4.55;;;;;;;19.87;31.99;101226.03;4934022;29;20051;-66
2021/12/17 10:25:59;;;;;;;8.10;4.30;;;;;;;19.96;31.91;101237.38;4932567;29;20054;-67
2021/12/17 10:28:26;;;;;;;8.13;4.55;;;;;;;20.21;31.83;101246.34;4930443;29;20058;-67
2021/12/17 10:30:55;;;;;;;5.68;3.55;;;;;;;20.84;31.81;101242.13;4933079;29;20054;-63
2021/12/17 10:33:25;;;;;;;12.55;4.72;;;;;;;20.99;31.51;101232.25;4933267;29;20075;-64
2021/12/17 10:35:54;;;;;;;8.63;4.32;;;;;;;21.66;31.15;101233.69;4931928;29;20535;-61
2021/12/17 10:38:25;;;;;;;10.30;6.03;;;;;;;22.08;30.82;101242.38;4930508;29;20075;-61
2021/12/17 10:41:11;;;;;;;8.73;4.93;;;;;;;22.82;30.52;101252.31;4928507;29;20377;-60
2021/12/17 10:43:45;;;;;;;10.88;6.68;;;;;;;23.77;29.94;101242.91;4927663;29;20150;-60
2021/12/17 10:46:32;;;;;;;8.27;5.18;;;;;;;24.19;29.04;101224.75;4925485;29;20127;-60
2021/12/17 10:54:11;;;;;;;11.23;6.22;;;;;;;23.36;27.94;101249.53;4934306;29;20055;-60
2021/12/17 10:56:41;;;;;;;7.30;5.10;;;;;;;22.78;28.10;101245.66;4928028;29;20058;-66
2021/12/17 10:59:11;;;;;;;10.43;6.25;;;;;;;22.33;28.81;101238.59;4929078;29;20465;-65
2021/12/17 11:01:45;;;;;;;12.25;6.50;;;;;;;22.42;28.79;101227.16;4925776;29;20401;-64
2021/12/17 11:04:23;;;;;;;9.18;5.80;;;;;;;22.48;28.87;101223.75;4922714;29;20527;-65
2021/12/17 11:07:02;;;;;;;8.05;4.90;;;;;;;22.53;28.67;101238.94;4923210;29;20191;-64
2021/12/17 11:09:35;;;;;;;10.18;6.78;;;;;;;22.65;28.77;101236.19;4920477;29;20136;-66
2021/12/17 11:12:17;;;;;;;11.75;6.43;;;;;;;22.86;28.78;101217.09;4915529;29;20139;-67
2021/12/17 11:14:46;;;;;;;11.40;5.35;;;;;;;23.55;28.57;101226.19;4922262;29;20048;-65
2021/12/17 11:17:15;;;;;;;10.23;6.55;;;;;;;23.57;27.75;101226.66;4922729;29;20150;-64
2021/12/17 11:20:07;;;;;;;14.73;7.18;;;;;;;24.13;28.19;101218.44;4929153;29;20062;-64
2021/12/17 11:22:38;;;;;;;15.60;5.38;;;;;;;24.35;27.65;101217.97;4924711;29;20078;-67
2021/12/17 11:25:06;;;;;;;9.35;6.25;;;;;;;23.65;27.56;101229.41;4916311;29;20586;-66
2021/12/17 11:27:33;;;;;;;12.02;7.70;;;;;;;23.40;27.50;101230.53;4920178;29;20142;-66
2021/12/17 11:30:02;;;;;;;11.18;5.88;;;;;;;23.23;27.10;101213.63;4919716;29;20052;-66
2021/12/17 11:32:29;;;;;;;11.18;6.15;;;;;;;23.28;27.43;101210.53;4922267;29;20138;-66
2021/12/17 11:34:58;;;;;;;9.90;5.78;;;;;;;23.02;27.65;101208.78;4924331;29;20488;-66
2021/12/17 11:37:26;;;;;;;;;;;;;;;23.26;27.81;101216.59;4920863;29;20131;-66
2021/12/17 11:39:57;;;;;;;12.82;5.90;;;;;;;24.08;27.55;101212.97;4926429;29;20013;-65
2021/12/17 11:42:59;;;;;;;4.65;3.65;;;;;;;24.43;27.06;101210.47;4926576;29;20148;-65
2021/12/17 11:45:27;;;;;;;7.25;4.95;;;;;;;24.05;26.80;101193.72;4918783;29;20048;-66
2021/12/17 11:48:12;;;;;;;8.18;6.05;;;;;;;23.36;26.28;101186.84;4923908;29;21026;-65
2021/12/17 11:50:41;;;;;;;8.73;5.10;;;;;;;23.70;26.46;101174.22;4925080;29;20051;-65
2021/12/17 11:53:20;;;;;;;8.27;5.53;;;;;;;23.76;26.40;101191.91;4922198;29;20075;-65
2021/12/17 11:55:56;;;;;;;10.25;6.93;;;;;;;23.90;26.98;101172.44;4925189;29;20048;-66
2021/12/17 11:59:02;;;;;;;11.52;6.00;;;;;;;25.06;26.17;101178.53;4923762;29;20052;-67
2021/12/17 12:02:03;;;;;;;9.95;5.72;;;;;;;24.86;25.35;101183.25;4880898;29;20076;-66
2021/12/17 12:04:33;;;;;;;10.70;5.72;;;;;;;24.46;25.84;101174.69;4870281;29;20052;-68
2021/12/17 12:07:04;;;;;;;10.65;6.00;;;;;;;24.86;25.77;101177.53;4914687;29;20141;-67
2021/12/17 12:09:56;;;;;;;10.27;4.95;;;;;;;25.18;25.70;101169.09;4925612;29;20146;-68
2021/12/17 12:12:38;;;;;;;7.85;4.32;;;;;;;25.48;24.78;101172.38;4927738;29;20142;-68
2021/12/17 12:15:17;;;;;;;8.73;5.38;;;;;;;25.18;24.66;101181.34;4923850;29;20103;-68
2021/12/17 12:18:03;;;;;;;7.63;5.97;;;;;;;25.51;25.02;101171.66;4934494;29;20076;-68
2021/12/17 12:20:49;;;;;;;9.18;5.38;;;;;;;26.66;24.81;101179.00;4925273;29;20059;-68
2021/12/17 12:23:36;;;;;;;12.70;5.85;;;;;;;27.87;24.05;101171.19;4919764;29;20059;-66
2021/12/17 12:26:12;;;;;;;6.95;4.35;;;;;;;29.07;23.15;101169.72;4933228;29;20721;-66
2021/12/17 12:28:44;;;;;;;6.72;4.80;;;;;;;29.56;22.16;101162.84;4930671;29;20083;-66
2021/12/17 12:31:25;;;;;;;6.65;5.28;;;;;;;28.05;21.79;101157.97;4934119;29;20047;-59
2021/12/17 12:33:58;;;;;;;4.93;4.43;;;;;;;26.85;22.30;101154.44;4934520;29;20075;-64
2021/12/17 12:36:44;;;;;;;6.97;4.50;;;;;;;26.37;22.67;101156.63;4924597;29;20048;-61
2021/12/17 12:39:26;;;;;;;5.50;4.50;;;;;;;26.12;22.81;101142.56;4923474;29;20062;-63
2021/12/17 12:42:11;;;;;;;8.68;4.63;;;;;;;26.10;22.64;101144.97;4918240;29;20058;-59
2021/12/17 12:44:44;;;;;;;8.95;5.15;;;;;;;26.16;23.09;101146.34;4921665;29;20052;-59
2021/12/17 12:47:20;;;;;;;9.05;4.40;;;;;;;25.79;22.93;101140.09;4927937;29;20103;-59
2021/12/17 12:50:08;;;;;;;9.30;5.20;;;;;;;25.93;22.97;101146.19;4927713;29;20733;-59
2021/12/17 12:52:45;;;;;;;9.40;5.63;;;;;;;26.26;23.09;101132.63;4926479;29;20047;-59
2021/12/17 12:55:47;;;;;;;8.52;5.55;;;;;;;26.54;22.68;101130.47;4931821;29;20052;-59
2021/12/17 12:58:17;;;;;;;4.47;3.35;;;;;;;25.52;23.04;101116.94;4919180;29;20048;-76
2021/12/17 13:00:58;;;;;;;7.78;5.55;;;;;;;25.11;23.37;101104.00;4928702;29;20079;-64
2021/12/17 13:03:29;;;;;;;8.95;6.07;;;;;;;25.06;23.99;101118.53;4935065;29;20426;-61
2021/12/17 13:06:01;;;;;;;10.98;6.43;;;;;;;26.13;23.84;101121.31;4933793;29;20044;-75
2021/12/17 13:08:33;;;;;;;8.57;6.15;;;;;;;27.43;22.99;101122.84;4930216;29;20047;-66
2021/12/17 13:11:06;;;;;;;15.63;6.47;;;;;;;27.62;22.81;101108.44;4933946;29;20047;-65
2021/12/17 13:13:52;;;;;;;11.63;6.82;;;;;;;28.53;22.73;101112.31;4930382;29;20131;-65
2021/12/17 13:22:03;;;;;;;12.57;7.38;;;;;;;31.15;20.77;101104.63;4927210;29;20058;-63
2021/12/17 13:24:35;;;;;;;10.00;4.90;;;;;;;29.84;22.20;101110.47;4922924;29;20095;-62
2021/12/17 13:27:11;;;;;;;11.05;5.72;;;;;;;27.84;23.00;101103.09;4923386;29;20090;-62
2021/12/17 13:29:44;;;;;;;9.60;5.25;;;;;;;25.94;24.11;101101.22;4924683;29;20052;-63
2021/12/17 13:32:13;;;;;;;11.77;5.85;;;;;;;24.80;25.13;101105.53;4923034;29;20159;-63
2021/12/17 13:34:44;;;;;;;11.65;5.30;;;;;;;23.79;26.05;101106.47;4919947;29;20048;-60
2021/12/17 13:37:25;;;;;;;12.30;5.07;;;;;;;22.99;26.32;101108.97;4927917;29;20393;-61
2021/12/17 13:39:55;;;;;;;29.33;15.85;;;;;;;21.89;27.02;101094.94;4923011;29;20618;-58
2021/12/17 13:42:37;;;;;;;16.40;8.18;;;;;;;20.99;28.12;101102.50;4926520;29;20062;-60
2021/12/17 13:45:08;;;;;;;9.20;4.63;;;;;;;20.41;28.72;101091.66;4922136;29;20230;-61
2021/12/17 13:47:46;;;;;;;10.25;5.50;;;;;;;20.11;29.31;101094.34;4929779;29;20132;-61
2021/12/17 13:50:19;;;;;;;11.80;5.97;;;;;;;19.53;30.01;101095.53;4930069;29;20551;-69
2021/12/17 13:53:04;;;;;;;10.30;5.28;;;;;;;18.94;31.16;101092.91;4927439;29;20079;-68
2021/12/17 13:55:37;;;;;;;8.52;4.32;;;;;;;18.66;31.24;101092.19;4935558;29;20134;-68
2021/12/17 13:58:13;;;;;;;14.43;5.90;;;;;;;18.41;31.80;101091.66;4931528;29;20043;-68
2021/12/17 14:00:43;;;;;;;10.65;5.38;;;;;;;18.26;32.17;101100.53;4925621;29;20391;-67
2021/12/17 14:03:11;;;;;;;;;;;;;;;17.91;32.40;101090.88;4923075;29;20051;-67
2021/12/17 14:05:44;;;;;;;11.18;5.32;;;;;;;17.91;32.48;101091.72;4924576;29;20010;-67
2021/12/17 14:08:22;;;;;;;10.73;5.20;;;;;;;17.77;33.09;101088.06;4932675;29;20130;-67
2021/12/17 14:10:51;;;;;;;10.63;5.10;;;;;;;17.85;32.99;101081.69;4933932;29;20086;-68
2021/12/17 14:13:24;;;;;;;10.57;5.10;;;;;;;17.94;33.20;101084.59;4933614;29;20047;-68
2021/12/17 14:16:02;;;;;;;10.98;5.35;;;;;;;18.04;32.85;101092.84;4930624;29;20043;-66
2021/12/17 14:18:30;;;;;;;13.15;6.07;;;;;;;18.17;33.10;101083.50;4924080;29;20059;-64
2021/12/17 14:21:01;;;;;;;11.50;6.03;;;;;;;18.15;33.11;101074.50;4940390;29;20074;-59
2021/12/17 14:23:31;;;;;;;10.88;6.05;;;;;;;18.17;33.59;101072.19;4922300;29;20526;-60
2021/12/17 14:25:59;;;;;;;15.10;5.65;;;;;;;18.05;33.94;101073.88;4925002;29;20118;-61
2021/12/17 14:28:30;;;;;;;11.32;5.25;;;;;;;18.08;33.61;101078.91;4925305;29;20050;-64
2021/12/17 14:31:06;;;;;;;12.00;6.43;;;;;;;17.99;33.99;101074.03;4928313;29;20147;-69
2021/12/17 14:33:35;;;;;;;12.00;5.80;;;;;;;18.02;33.69;101064.06;4925583;29;20527;-58
2021/12/17 14:36:04;;;;;;;12.70;6.07;;;;;;;18.03;33.90;101077.03;4923920;29;20182;-62
2021/12/17 14:38:37;;;;;;;21.60;6.95;;;;;;;18.02;33.81;101069.72;4922658;29;20559;-61
2021/12/17 14:41:07;;;;;;;14.13;6.32;;;;;;;18.00;33.82;101075.69;4926881;29;20143;-60
2021/12/17 14:43:33;;;;;;;13.77;6.32;;;;;;;18.00;33.99;101074.84;4924237;29;20500;-67
2021/12/17 14:46:23;;;;;;;14.95;7.05;;;;;;;17.92;34.34;101070.78;4924306;29;20142;-68
2021/12/17 15:04:01;;;;;;;13.07;6.57;;;;;;;17.67;34.83;101055.19;4934282;29;20392;-60